Time;durP1;ratioP1;P1;durP2;ratioP2;P2;SDS_P1;SDS_P2;PMS_P1;PMS_P2;Temp;Humidity;BMP_temperature;BMP_pressure;BME280_temperature;BME280_humidity;BME280_pressure;Samples;Min_cycle;Max_cycle;Signal;HPM_P1;HPM_P2
2022/11/25 00:01:48;;;;;;;29.20;5.80;;;;;;;;;;4972079;28;20173;-74
2022/11/25 00:04:14;;;;;;;43.53;5.32;;;;;;;;;;4967228;28;20542;-74
2022/11/25 00:06:40;;;;;;;36.03;6.80;;;;;;;;;;4969318;28;20038;-75
2022/11/25 00:09:07;;;;;;;31.13;7.13;;;;;;;;;;4967720;28;20031;-74
2022/11/25 00:11:35;;;;;;;37.25;5.50;;;;;;;;;;4970143;28;20046;-75
2022/11/25 00:14:01;;;;;;;39.55;6.25;;;;;;;;;;4973056;28;20029;-75
2022/11/25 00:16:27;;;;;;;40.30;6.13;;;;;;;;;;4968009;28;20038;-75
2022/11/25 00:18:55;;;;;;;36.13;5.45;;;;;;;;;;4973694;28;20125;-75
2022/11/25 00:21:22;;;;;;;41.88;6.38;;;;;;;;;;4970497;28;20484;-76
2022/11/25 00:23:52;;;;;;;34.50;5.90;;;;;;;;;;4974599;28;20039;-75
2022/11/25 00:26:18;;;;;;;37.97;8.32;;;;;;;;;;4966611;28;20027;-74
2022/11/25 00:28:45;;;;;;;38.42;6.30;;;;;;;;;;4971375;28;20166;-74
2022/11/25 00:31:13;;;;;;;39.58;6.95;;;;;;;;;;4968340;28;20038;-74
2022/11/25 00:33:39;;;;;;;37.10;5.85;;;;;;;;;;4971155;28;20038;-76
2022/11/25 00:36:07;;;;;;;35.75;5.90;;;;;;;;;;4968818;28;20509;-75
2022/11/25 00:38:33;;;;;;;34.25;6.07;;;;;;;;;;4972205;28;20042;-75
2022/11/25 00:46:28;;;;;;;45.17;7.25;;;;;;;;;;4969638;28;20042;-74
2022/11/25 00:48:54;;;;;;;40.90;7.20;;;;;;;;;;4969658;28;20062;-74
2022/11/25 00:51:20;;;;;;;41.95;6.38;;;;;;;;;;4969459;28;20023;-75
2022/11/25 00:53:46;;;;;;;43.53;6.78;;;;;;;;;;4979844;28;20037;-75
2022/11/25 00:56:12;;;;;;;45.08;6.47;;;;;;;;;;4968862;28;20564;-74
2022/11/25 00:58:38;;;;;;;46.75;7.80;;;;;;;;;;4955774;28;20103;-75
2022/11/25 01:01:04;;;;;;;44.72;8.52;;;;;;;;;;4967515;28;20062;-74
2022/11/25 01:03:31;;;;;;;34.20;7.10;;;;;;;;;;4972723;28;20028;-75
2022/11/25 01:06:01;;;;;;;38.30;7.05;;;;;;;;;;4953049;28;20039;-76
2022/11/25 01:08:29;;;;;;;45.22;8.48;;;;;;;;;;4958550;28;20507;-75
2022/11/25 01:10:59;;;;;;;41.22;6.70;;;;;;;;;;4973126;28;20034;-75
2022/11/25 01:13:25;;;;;;;36.13;6.90;;;;;;;;;;4975126;28;20088;-75
2022/11/25 01:15:51;;;;;;;39.90;10.07;;;;;;;;;;4970453;28;20034;-75
2022/11/25 01:18:17;;;;;;;42.75;7.78;;;;;;;;;;4977003;28;20109;-76
2022/11/25 01:20:43;;;;;;;40.17;7.60;;;;;;;;;;4953828;28;20465;-75
2022/11/25 01:23:09;;;;;;;46.97;7.80;;;;;;;;;;4964072;28;20019;-74
2022/11/25 01:25:39;;;;;;;43.83;7.65;;;;;;;;;;4948113;28;20054;-74
2022/11/25 01:28:05;;;;;;;44.85;7.38;;;;;;;;;;4977186;28;20552;-74
2022/11/25 01:30:31;;;;;;;36.95;6.75;;;;;;;;;;4975773;28;20054;-76
2022/11/25 01:32:58;;;;;;;41.50;6.55;;;;;;;;;;4975359;28;20035;-74
2022/11/25 01:35:24;;;;;;;41.42;7.50;;;;;;;;;;4968969;28;20030;-75
2022/11/25 01:37:50;;;;;;;45.78;8.57;;;;;;;;;;4967875;28;20031;-74
2022/11/25 01:40:16;;;;;;;47.75;6.90;;;;;;;;;;4952153;28;20054;-75
2022/11/25 01:42:42;;;;;;;43.60;7.28;;;;;;;;;;4968930;28;20052;-76
2022/11/25 01:45:25;;;;;;;51.05;8.15;;;;;;;;;;4977851;28;20030;-75
2022/11/25 01:47:54;;;;;;;40.97;7.47;;;;;;;;;;4967771;28;20030;-75
2022/11/25 01:50:21;;;;;;;45.63;6.80;;;;;;;;;;4967883;28;20042;-75
2022/11/25 01:52:49;;;;;;;42.67;8.23;;;;;;;;;;4971401;28;20038;-77
2022/11/25 01:55:17;;;;;;;33.50;7.82;;;;;;;;;;4972198;28;20035;-76
2022/11/25 01:57:43;;;;;;;36.35;6.82;;;;;;;;;;4953319;28;20038;-76
2022/11/25 02:00:09;;;;;;;44.20;8.05;;;;;;;;;;4973074;28;20035;-74
2022/11/25 02:02:35;;;;;;;44.80;8.65;;;;;;;;;;4955252;28;20311;-75
2022/11/25 02:05:03;;;;;;;36.75;7.68;;;;;;;;;;4971456;28;20030;-77
2022/11/25 02:07:37;;;;;;;52.42;10.05;;;;;;;;;;4968499;28;20101;-76
2022/11/25 02:10:05;;;;;;;30.58;8.25;;;;;;;;;;4968371;28;20515;-76
2022/11/25 02:12:31;;;;;;;36.53;8.15;;;;;;;;;;4968518;28;20035;-76
2022/11/25 02:14:58;;;;;;;40.50;9.88;;;;;;;;;;4936682;28;20039;-76
2022/11/25 02:17:25;;;;;;;43.33;10.32;;;;;;;;;;4969717;28;20023;-76
2022/11/25 02:19:55;;;;;;;41.67;10.18;;;;;;;;;;4970683;28;20035;-75
2022/11/25 02:22:26;;;;;;;36.80;8.98;;;;;;;;;;4977001;28;20481;-76
2022/11/25 02:24:55;;;;;;;47.88;9.85;;;;;;;;;;4977098;28;20166;-76
2022/11/25 02:27:21;;;;;;;36.58;8.77;;;;;;;;;;4970360;28;20042;-77
2022/11/25 02:29:48;;;;;;;38.07;8.30;;;;;;;;;;4923751;28;1298002;-77
2022/11/25 02:32:14;;;;;;;40.95;9.52;;;;;;;;;;4972575;28;20292;-75
2022/11/25 02:34:46;;;;;;;32.45;8.32;;;;;;;;;;4967953;28;20089;-76
2022/11/25 02:37:13;;;;;;;30.80;8.73;;;;;;;;;;4954237;28;20042;-76
2022/11/25 02:39:39;;;;;;;36.55;8.57;;;;;;;;;;4967877;28;20062;-76
2022/11/25 02:42:06;;;;;;;34.92;7.93;;;;;;;;;;4966110;28;20028;-75
2022/11/25 02:44:32;;;;;;;32.25;7.63;;;;;;;;;;4970513;28;20018;-76
2022/11/25 02:46:58;;;;;;;29.60;7.18;;;;;;;;;;4951000;28;20082;-77
2022/11/25 02:49:24;;;;;;;33.90;7.35;;;;;;;;;;4954342;28;20031;-76
2022/11/25 02:51:50;;;;;;;35.50;8.13;;;;;;;;;;4948856;28;20077;-74
2022/11/25 02:54:16;;;;;;;25.38;7.85;;;;;;;;;;4973571;28;20031;-76
2022/11/25 02:56:42;;;;;;;40.95;8.88;;;;;;;;;;4975140;28;20039;-76
2022/11/25 02:59:08;;;;;;;33.78;8.98;;;;;;;;;;4978513;28;20027;-76
2022/11/25 03:01:35;;;;;;;37.38;7.82;;;;;;;;;;4967574;28;20057;-74
2022/11/25 03:04:01;;;;;;;34.33;6.85;;;;;;;;;;4969004;28;20026;-76
2022/11/25 03:06:28;;;;;;;35.70;8.00;;;;;;;;;;4969622;28;20031;-73
2022/11/25 03:08:54;;;;;;;27.55;6.88;;;;;;;;;;4969361;28;20113;-74
2022/11/25 03:12:17;;;;;;;36.95;7.05;;;;;;;;;;4971079;28;20065;-73
2022/11/25 03:14:07;;;;;;;32.28;7.65;;;;;;;;;;4969199;28;20034;-74
2022/11/25 03:16:33;;;;;;;31.90;8.27;;;;;;;;;;4962435;28;20479;-74
2022/11/25 03:18:59;;;;;;;35.15;7.40;;;;;;;;;;4969985;28;20201;-75
2022/11/25 03:21:25;;;;;;;26.73;7.65;;;;;;;;;;4972897;28;20526;-79
2022/11/25 03:23:51;;;;;;;37.40;8.18;;;;;;;;;;4967747;28;20031;-74
2022/11/25 03:26:17;;;;;;;28.02;7.07;;;;;;;;;;4969175;28;20039;-74
2022/11/25 03:28:43;;;;;;;31.05;7.43;;;;;;;;;;4971380;28;20519;-73
2022/11/25 03:31:12;;;;;;;31.13;7.47;;;;;;;;;;4953100;28;20043;-74
2022/11/25 03:33:38;;;;;;;37.90;8.50;;;;;;;;;;4967670;28;20043;-74
2022/11/25 03:36:04;;;;;;;31.15;8.25;;;;;;;;;;4970468;28;20126;-75
2022/11/25 03:38:30;;;;;;;35.20;7.72;;;;;;;;;;4970419;28;20049;-75
2022/11/25 03:40:56;;;;;;;30.63;8.38;;;;;;;;;;4965920;28;20046;-75
2022/11/25 03:43:22;;;;;;;26.75;7.32;;;;;;;;;;4967156;28;20034;-75
2022/11/25 03:45:49;;;;;;;25.20;7.75;;;;;;;;;;4965790;28;20041;-75
2022/11/25 03:48:15;;;;;;;29.80;7.18;;;;;;;;;;4973779;28;20035;-75
2022/11/25 03:50:41;;;;;;;27.38;7.47;;;;;;;;;;4970047;28;20038;-75
2022/11/25 03:53:07;;;;;;;29.98;7.55;;;;;;;;;;4972549;28;20041;-74
2022/11/25 03:55:33;;;;;;;21.17;6.22;;;;;;;;;;4952256;28;20053;-75
2022/11/25 03:57:59;;;;;;;27.08;6.07;;;;;;;;;;4951597;28;20047;-75
2022/11/25 04:00:25;;;;;;;22.88;5.88;;;;;;;;;;4975946;28;20035;-74
2022/11/25 04:02:51;;;;;;;28.58;5.72;;;;;;;;;;4972257;28;20813;-75
2022/11/25 04:05:17;;;;;;;22.67;6.15;;;;;;;;;;4947838;28;20048;-74
2022/11/25 04:07:43;;;;;;;22.95;5.10;;;;;;;;;;4969029;28;20065;-74
2022/11/25 04:10:10;;;;;;;13.80;4.50;;;;;;;;;;4969798;28;20030;-74
2022/11/25 04:12:48;;;;;;;14.30;4.43;;;;;;;;;;4969242;28;20039;-75
2022/11/25 04:15:15;;;;;;;17.50;4.10;;;;;;;;;;4970411;28;20058;-75
2022/11/25 04:17:41;;;;;;;19.10;4.78;;;;;;;;;;4973144;28;20128;-75
2022/11/25 04:20:08;;;;;;;14.63;4.20;;;;;;;;;;4951140;28;20049;-75
2022/11/25 04:22:34;;;;;;;15.57;3.92;;;;;;;;;;4966821;28;20560;-75
2022/11/25 04:25:00;;;;;;;15.18;3.50;;;;;;;;;;4972086;28;20131;-75
2022/11/25 04:27:27;;;;;;;17.15;3.78;;;;;;;;;;4970472;28;20046;-74
2022/11/25 04:29:53;;;;;;;20.17;4.88;;;;;;;;;;4967541;28;20114;-74
2022/11/25 04:32:19;;;;;;;11.82;3.75;;;;;;;;;;4973585;28;20548;-74
2022/11/25 04:34:45;;;;;;;12.55;2.95;;;;;;;;;;4970531;28;20069;-75
2022/11/25 04:37:11;;;;;;;9.90;2.45;;;;;;;;;;4969509;28;20059;-74
2022/11/25 04:39:37;;;;;;;11.68;3.13;;;;;;;;;;4950231;28;20042;-75
2022/11/25 04:44:47;;;;;;;13.93;3.65;;;;;;;;;;4968337;28;20058;-75
2022/11/25 04:47:13;;;;;;;12.00;3.08;;;;;;;;;;4964142;28;20031;-74
2022/11/25 04:49:39;;;;;;;11.43;3.40;;;;;;;;;;4970672;28;20062;-75
2022/11/25 04:52:05;;;;;;;10.60;2.83;;;;;;;;;;4969827;28;20118;-74
2022/11/25 04:54:31;;;;;;;14.70;2.92;;;;;;;;;;4966892;28;20079;-75
2022/11/25 04:56:57;;;;;;;13.80;2.90;;;;;;;;;;4970667;28;20055;-75
2022/11/25 04:59:38;;;;;;;12.80;2.90;;;;;;;;;;4960204;28;20039;-74
2022/11/25 05:02:05;;;;;;;8.32;2.58;;;;;;;;;;4967309;28;20042;-74
2022/11/25 05:04:31;;;;;;;10.93;2.97;;;;;;;;;;4963848;28;20050;-74
2022/11/25 05:06:57;;;;;;;16.60;3.22;;;;;;;;;;4951805;28;20060;-74
2022/11/25 05:09:23;;;;;;;11.60;2.70;;;;;;;;;;4945392;28;20038;-73
2022/11/25 05:11:49;;;;;;;10.00;3.00;;;;;;;;;;4969926;28;20073;-74
2022/11/25 05:14:15;;;;;;;6.80;2.88;;;;;;;;;;4969737;28;20397;-74
2022/11/25 05:16:41;;;;;;;8.27;3.00;;;;;;;;;;4965383;28;20111;-75
2022/11/25 05:19:07;;;;;;;11.27;3.47;;;;;;;;;;4948245;28;20146;-74
2022/11/25 05:21:33;;;;;;;11.07;3.35;;;;;;;;;;4965359;28;20035;-75
2022/11/25 05:23:59;;;;;;;10.55;4.00;;;;;;;;;;4967545;28;20092;-74
2022/11/25 05:26:25;;;;;;;11.98;3.95;;;;;;;;;;4946360;28;20024;-75
2022/11/25 05:28:51;;;;;;;11.95;4.00;;;;;;;;;;4967359;28;20046;-75
2022/11/25 05:31:17;;;;;;;13.75;4.15;;;;;;;;;;4954660;28;20034;-74
2022/11/25 05:33:43;;;;;;;11.30;4.20;;;;;;;;;;4970215;28;20065;-73
2022/11/25 05:36:09;;;;;;;13.98;3.85;;;;;;;;;;4953331;28;20558;-74
2022/11/25 05:38:36;;;;;;;13.20;4.65;;;;;;;;;;4959561;28;20436;-73
2022/11/25 05:41:03;;;;;;;13.35;4.43;;;;;;;;;;4969708;28;20030;-74
2022/11/25 05:43:29;;;;;;;8.65;3.97;;;;;;;;;;4971532;28;20085;-74
2022/11/25 05:45:55;;;;;;;11.90;3.80;;;;;;;;;;4974011;28;20547;-72
2022/11/25 05:48:21;;;;;;;12.05;4.20;;;;;;;;;;4971070;28;20042;-73
2022/11/25 05:50:47;;;;;;;10.65;3.67;;;;;;;;;;4973258;28;20071;-74
2022/11/25 05:53:16;;;;;;;14.82;4.82;;;;;;;;;;4971752;28;20073;-74
2022/11/25 05:55:42;;;;;;;10.13;4.60;;;;;;;;;;4972518;28;20035;-75
2022/11/25 05:58:08;;;;;;;16.20;4.75;;;;;;;;;;4951246;28;20608;-75
2022/11/25 06:00:34;;;;;;;10.43;4.35;;;;;;;;;;4953546;28;20094;-74
2022/11/25 06:03:00;;;;;;;15.88;5.50;;;;;;;;;;4972934;28;20105;-74
2022/11/25 06:05:26;;;;;;;11.93;5.65;;;;;;;;;;4969634;28;20114;-72
2022/11/25 06:07:52;;;;;;;12.95;5.05;;;;;;;;;;4971752;28;20138;-73
2022/11/25 06:10:18;;;;;;;15.20;5.40;;;;;;;;;;4954096;28;20509;-73
2022/11/25 06:12:44;;;;;;;15.43;5.88;;;;;;;;;;4973256;28;20034;-73
2022/11/25 06:15:11;;;;;;;15.10;5.72;;;;;;;;;;4969186;28;20035;-73
2022/11/25 06:17:37;;;;;;;13.15;6.32;;;;;;;;;;4966292;28;20053;-74
2022/11/25 06:20:04;;;;;;;15.00;5.75;;;;;;;;;;4964803;28;20030;-74
2022/11/25 06:22:30;;;;;;;17.55;6.32;;;;;;;;;;4965457;28;20030;-74
2022/11/25 06:24:56;;;;;;;14.55;6.22;;;;;;;;;;4968446;28;20029;-74
2022/11/25 06:27:22;;;;;;;13.50;6.43;;;;;;;;;;4961164;28;20578;-73
2022/11/25 06:29:48;;;;;;;16.42;6.68;;;;;;;;;;4971658;28;20446;-74
2022/11/25 06:32:14;;;;;;;13.93;6.55;;;;;;;;;;4958865;28;20044;-73
2022/11/25 06:34:41;;;;;;;16.25;7.00;;;;;;;;;;4969419;28;20161;-74
2022/11/25 06:37:07;;;;;;;13.43;7.60;;;;;;;;;;4968363;28;20030;-74
2022/11/25 06:39:34;;;;;;;16.23;7.25;;;;;;;;;;4965121;28;20038;-73
2022/11/25 06:42:00;;;;;;;14.10;6.97;;;;;;;;;;4952790;28;20082;-74
2022/11/25 06:44:27;;;;;;;15.45;7.90;;;;;;;;;;4969791;28;20031;-73
2022/11/25 06:46:53;;;;;;;21.67;8.20;;;;;;;;;;4970053;28;20615;-73
2022/11/25 06:49:19;;;;;;;23.65;9.40;;;;;;;;;;4966421;28;20026;-73
2022/11/25 06:51:45;;;;;;;18.40;9.45;;;;;;;;;;4961695;28;20507;-73
2022/11/25 06:54:11;;;;;;;17.70;9.00;;;;;;;;;;4963886;28;20050;-74
2022/11/25 06:56:38;;;;;;;16.90;9.15;;;;;;;;;;4949260;28;20542;-75
2022/11/25 06:59:04;;;;;;;19.05;9.05;;;;;;;;;;4967409;28;20034;-73
2022/11/25 07:01:31;;;;;;;21.40;9.63;;;;;;;;;;4947997;29;20027;-72
2022/11/25 07:04:02;;;;;;;25.48;11.30;;;;;;;;;;4950283;28;20054;-74
2022/11/25 07:06:28;;;;;;;25.20;11.57;;;;;;;;;;4967231;28;20093;-74
2022/11/25 07:08:54;;;;;;;21.13;10.68;;;;;;;;;;4950175;28;20850;-74
2022/11/25 07:11:24;;;;;;;24.33;11.07;;;;;;;;;;4948748;28;20185;-73
2022/11/25 07:13:51;;;;;;;20.42;10.15;;;;;;;;;;4963804;28;20515;-73
2022/11/25 07:16:18;;;;;;;21.70;9.98;;;;;;;;;;4961544;28;20173;-72
2022/11/25 07:18:44;;;;;;;25.55;10.70;;;;;;;;;;4966499;28;20034;-73
2022/11/25 07:21:12;;;;;;;24.60;11.65;;;;;;;;;;4941613;28;20035;-73
2022/11/25 07:23:38;;;;;;;28.98;9.38;;;;;;;;;;4966021;28;20031;-73
2022/11/25 07:26:09;;;;;;;26.17;10.43;;;;;;;;;;4963564;28;20146;-73
2022/11/25 07:28:35;;;;;;;;;;;;;;;;;;4953402;28;20405;-74
2022/11/25 07:31:27;;;;;;;25.95;11.73;;;;;;;;;;4961092;28;20020;-75
2022/11/25 07:33:54;;;;;;;22.90;10.63;;;;;;;;;;4963113;28;20120;-75
2022/11/25 07:36:21;;;;;;;30.52;10.82;;;;;;;;;;4957463;28;20030;-75
2022/11/25 07:38:47;;;;;;;26.02;11.18;;;;;;;;;;4962774;28;20038;-72
2022/11/25 07:41:15;;;;;;;19.17;10.18;;;;;;;;;;4965575;28;20067;-73
2022/11/25 07:43:43;;;;;;;23.30;10.93;;;;;;;;;;4955621;28;20046;-75
2022/11/25 07:46:10;;;;;;;23.60;10.48;;;;;;;;;;4958232;28;20123;-73
2022/11/25 07:48:37;;;;;;;20.33;10.32;;;;;;;;;;4959093;28;20122;-74
2022/11/25 07:51:03;;;;;;;23.77;10.15;;;;;;;;;;4966090;28;20042;-73
2022/11/25 07:53:29;;;;;;;23.30;9.75;;;;;;;;;;4959462;28;20030;-74
2022/11/25 07:55:55;;;;;;;23.55;11.05;;;;;;;;;;4944046;28;20053;-73
2022/11/25 07:58:21;;;;;;;26.23;11.52;;;;;;;;;;4962722;28;20062;-73
2022/11/25 08:00:47;;;;;;;27.40;12.05;;;;;;;;;;4964540;28;20492;-74
2022/11/25 08:03:13;;;;;;;31.20;13.23;;;;;;;;;;4959420;28;20050;-73
2022/11/25 08:05:39;;;;;;;19.30;11.15;;;;;;;;;;4967547;28;20038;-74
2022/11/25 08:08:05;;;;;;;17.95;10.25;;;;;;;;;;4963696;28;20067;-74
2022/11/25 08:10:31;;;;;;;28.73;11.18;;;;;;;;;;4946728;28;20050;-73
2022/11/25 08:12:57;;;;;;;21.95;10.38;;;;;;;;;;4950020;28;20117;-73
2022/11/25 08:15:23;;;;;;;22.40;9.65;;;;;;;;;;4962828;28;20133;-74
2022/11/25 08:17:51;;;;;;;22.05;9.30;;;;;;;;;;4951359;28;20031;-73
2022/11/25 08:20:17;;;;;;;22.95;9.50;;;;;;;;;;4962944;28;20278;-73
2022/11/25 08:22:43;;;;;;;24.98;9.75;;;;;;;;;;4964492;28;20034;-73
2022/11/25 08:25:09;;;;;;;24.73;8.48;;;;;;;;;;4963811;28;20081;-74
2022/11/25 08:27:35;;;;;;;12.73;7.75;;;;;;;;;;4944178;28;20093;-73
2022/11/25 08:30:02;;;;;;;15.40;8.82;;;;;;;;;;4967295;28;20055;-74
2022/11/25 08:32:28;;;;;;;20.35;7.85;;;;;;;;;;4966162;28;20078;-74
2022/11/25 08:34:54;;;;;;;26.42;7.53;;;;;;;;;;4965729;28;20042;-73
2022/11/25 08:37:20;;;;;;;21.15;7.80;;;;;;;;;;4964473;28;20030;-74
2022/11/25 08:39:48;;;;;;;21.10;7.65;;;;;;;;;;4952481;28;20066;-73
2022/11/25 08:42:15;;;;;;;24.13;7.63;;;;;;;;;;4963050;28;20488;-73
2022/11/25 08:44:41;;;;;;;18.45;7.50;;;;;;;;;;4967428;28;20034;-74
2022/11/25 08:47:08;;;;;;;14.85;6.57;;;;;;;;;;4968977;28;20134;-72
2022/11/25 08:49:34;;;;;;;16.85;7.45;;;;;;;;;;4968877;28;20235;-73
2022/11/25 08:52:00;;;;;;;18.67;7.22;;;;;;;;;;4967018;28;20038;-73
2022/11/25 08:54:26;;;;;;;17.25;7.32;;;;;;;;;;4960751;28;20023;-73
2022/11/25 08:56:54;;;;;;;19.13;7.28;;;;;;;;;;4959291;28;20114;-73
2022/11/25 08:59:21;;;;;;;23.75;7.28;;;;;;;;;;4966439;28;20035;-75
2022/11/25 09:01:47;;;;;;;21.02;7.18;;;;;;;;;;4966989;28;20039;-74
2022/11/25 09:04:13;;;;;;;13.13;6.82;;;;;;;;;;4966971;28;20507;-75
2022/11/25 09:06:39;;;;;;;18.98;7.20;;;;;;;;;;4968177;28;20027;-73
2022/11/25 09:09:05;;;;;;;21.80;7.00;;;;;;;;;;4963769;28;20035;-73
2022/11/25 09:11:31;;;;;;;20.15;7.20;;;;;;;;;;4964076;28;20552;-74
2022/11/25 09:13:57;;;;;;;19.05;6.68;;;;;;;;;;4967075;28;20042;-74
2022/11/25 09:16:23;;;;;;;16.75;6.65;;;;;;;;;;4969970;28;20090;-73
2022/11/25 09:18:50;;;;;;;20.45;6.22;;;;;;;;;;4959924;28;20499;-74
2022/11/25 09:21:17;;;;;;;16.92;6.57;;;;;;;;;;4969116;28;20069;-74
2022/11/25 09:23:43;;;;;;;19.77;6.95;;;;;;;;;;4971516;28;20392;-75
2022/11/25 09:26:17;;;;;;;14.65;5.38;;;;;;;;;;4970658;28;20038;-74
2022/11/25 09:28:43;;;;;;;20.45;6.15;;;;;;;;;;4957281;28;20023;-75
2022/11/25 09:31:09;;;;;;;13.18;5.07;;;;;;;;;;4974224;28;20035;-74
2022/11/25 09:33:35;;;;;;;16.08;5.05;;;;;;;;;;4950272;28;20183;-74
2022/11/25 09:36:02;;;;;;;19.48;4.30;;;;;;;;;;4973483;28;20031;-74
2022/11/25 09:38:28;;;;;;;14.00;5.07;;;;;;;;;;4968681;28;20489;-74
2022/11/25 09:46:40;;;;;;;16.58;4.70;;;;;;;;;;4950714;28;20491;-73
2022/11/25 09:46:59;;;;;;;13.38;4.13;;;;;;;;;;4970745;28;20137;-75
2022/11/25 09:49:31;;;;;;;11.85;4.38;;;;;;;;;;4966763;28;20106;-74
2022/11/25 09:51:57;;;;;;;16.02;4.97;;;;;;;;;;4958304;28;20034;-74
2022/11/25 09:54:32;;;;;;;12.13;4.03;;;;;;;;;;4956294;28;20110;-73
2022/11/25 09:57:10;;;;;;;13.82;4.00;;;;;;;;;;4954456;28;20031;-75
2022/11/25 09:59:42;;;;;;;15.48;4.50;;;;;;;;;;4969775;28;20030;-75
2022/11/25 10:02:19;;;;;;;12.70;4.20;;;;;;;;;;4967150;28;20041;-74
2022/11/25 10:04:54;;;;;;;11.02;3.97;;;;;;;;;;4969992;28;20035;-75
2022/11/25 10:07:32;;;;;;;17.40;4.57;;;;;;;;;;4969479;28;20018;-74
2022/11/25 10:10:00;;;;;;;13.25;3.75;;;;;;;;;;4967062;28;20043;-75
2022/11/25 10:12:32;;;;;;;15.35;3.85;;;;;;;;;;4973452;28;20038;-74
2022/11/25 10:15:07;;;;;;;12.85;3.60;;;;;;;;;;4969674;28;20113;-75
2022/11/25 10:17:45;;;;;;;19.85;3.67;;;;;;;;;;4962791;28;20226;-74
2022/11/25 10:20:14;;;;;;;17.90;3.97;;;;;;;;;;4966317;28;20066;-75
2022/11/25 10:22:41;;;;;;;13.60;3.55;;;;;;;;;;4966350;28;20035;-73
2022/11/25 10:25:15;;;;;;;14.07;3.92;;;;;;;;;;4966967;28;20026;-75
2022/11/25 10:27:59;;;;;;;15.45;3.28;;;;;;;;;;4954795;28;20035;-74
2022/11/25 10:30:26;;;;;;;12.18;3.80;;;;;;;;;;4963194;28;20129;-74
2022/11/25 10:32:52;;;;;;;16.73;3.50;;;;;;;;;;4966999;28;20031;-75
2022/11/25 10:35:26;;;;;;;13.32;3.60;;;;;;;;;;4971112;28;20141;-74
2022/11/25 10:37:54;;;;;;;13.30;3.08;;;;;;;;;;4954107;28;20539;-74
2022/11/25 10:40:20;;;;;;;10.60;3.30;;;;;;;;;;4967059;28;20027;-75
2022/11/25 10:42:46;;;;;;;18.55;3.60;;;;;;;;;;4967969;28;20061;-75
2022/11/25 10:45:12;;;;;;;13.43;4.03;;;;;;;;;;4969382;28;20039;-74
2022/11/25 10:47:57;;;;;;;18.33;4.30;;;;;;;;;;4944730;29;20389;-74
2022/11/25 10:50:36;;;;;;;13.30;3.63;;;;;;;;;;4966621;28;20107;-74
2022/11/25 10:53:11;;;;;;;14.55;3.70;;;;;;;;;;4973725;28;20035;-74
2022/11/25 10:55:37;;;;;;;14.00;3.67;;;;;;;;;;4968787;28;20031;-75
2022/11/25 10:58:22;;;;;;;13.68;4.22;;;;;;;;;;4955206;28;20037;-75
2022/11/25 11:00:49;;;;;;;15.48;3.70;;;;;;;;;;4947392;28;20050;-75
2022/11/25 11:03:22;;;;;;;10.98;3.55;;;;;;;;;;4967819;28;20121;-75
2022/11/25 11:05:49;;;;;;;16.45;4.28;;;;;;;;;;4963305;28;20030;-74
2022/11/25 11:08:17;;;;;;;15.35;4.32;;;;;;;;;;4971983;28;20515;-74
2022/11/25 11:10:43;;;;;;;11.07;3.28;;;;;;;;;;4964085;28;20579;-75
2022/11/25 11:13:25;;;;;;;14.93;3.80;;;;;;;;;;4967231;28;20046;-73
2022/11/25 11:15:52;;;;;;;16.45;4.32;;;;;;;;;;4971265;28;20031;-75
2022/11/25 11:18:29;;;;;;;12.73;3.50;;;;;;;;;;4962279;28;20070;-75
2022/11/25 11:20:57;;;;;;;17.02;3.63;;;;;;;;;;4948380;28;20039;-74
2022/11/25 11:23:23;;;;;;;17.67;3.92;;;;;;;;;;4965288;28;20508;-75
2022/11/25 11:26:08;;;;;;;15.82;3.78;;;;;;;;;;4968628;28;20034;-74
2022/11/25 11:28:37;;;;;;;11.23;3.53;;;;;;;;;;4964672;28;20070;-75
2022/11/25 11:31:09;;;;;;;13.68;3.50;;;;;;;;;;4966087;28;20043;-75
2022/11/25 11:33:36;;;;;;;19.63;3.97;;;;;;;;;;4947390;28;20031;-74
2022/11/25 11:36:05;;;;;;;20.23;4.18;;;;;;;;;;4963483;28;20023;-75
2022/11/25 11:38:33;;;;;;;18.33;4.00;;;;;;;;;;4960462;28;20041;-75
2022/11/25 11:41:07;;;;;;;12.40;3.15;;;;;;;;;;4961775;28;20118;-75
2022/11/25 11:43:41;;;;;;;17.50;3.55;;;;;;;;;;4963036;28;20046;-76
2022/11/25 11:46:46;;;;;;;14.73;3.95;;;;;;;;;;4966351;28;20031;-74
2022/11/25 11:49:15;;;;;;;11.63;3.38;;;;;;;;;;4906142;29;20032;-76
2022/11/25 11:51:59;;;;;;;18.60;3.95;;;;;;;;;;4909188;29;20034;-74
2022/11/25 11:54:25;;;;;;;16.65;3.97;;;;;;;;;;4927655;28;20042;-75
2022/11/25 11:57:04;;;;;;;14.82;3.35;;;;;;;;;;4966308;28;20019;-75
2022/11/25 11:59:36;;;;;;;15.57;3.55;;;;;;;;;;4967688;28;20499;-75
2022/11/25 12:02:21;;;;;;;17.67;3.45;;;;;;;;;;4966847;28;20484;-74
2022/11/25 12:04:47;;;;;;;22.70;3.75;;;;;;;;;;4960541;28;20027;-74
2022/11/25 12:07:34;;;;;;;19.02;4.38;;;;;;;;;;4958159;28;20101;-72
2022/11/25 12:10:15;;;;;;;18.65;3.53;;;;;;;;;;4943512;28;20034;-71
2022/11/25 12:12:44;;;;;;;23.50;4.38;;;;;;;;;;4965053;28;20027;-71
2022/11/25 12:15:22;;;;;;;19.70;3.90;;;;;;;;;;4964070;28;20031;-71
2022/11/25 12:17:52;;;;;;;24.55;4.03;;;;;;;;;;4962841;28;20484;-70
2022/11/25 12:20:18;;;;;;;21.92;3.90;;;;;;;;;;4967240;28;20034;-73
2022/11/25 12:22:57;;;;;;;25.90;5.18;;;;;;;;;;4964666;28;20046;-69
2022/11/25 12:25:25;;;;;;;21.20;3.35;;;;;;;;;;4963478;28;20038;-70
2022/11/25 12:27:58;;;;;;;19.98;4.07;;;;;;;;;;4959996;28;20121;-70
2022/11/25 12:30:28;;;;;;;24.77;6.40;;;;;;;;;;4962178;28;20137;-70
2022/11/25 12:33:06;;;;;;;18.70;3.63;;;;;;;;;;4968414;28;20034;-71
2022/11/25 12:35:32;;;;;;;16.38;3.58;;;;;;;;;;4960733;28;20030;-71
2022/11/25 12:38:12;;;;;;;31.35;3.75;;;;;;;;;;4961215;28;20034;-71
2022/11/25 12:40:38;;;;;;;20.33;3.92;;;;;;;;;;4946122;28;20046;-70
2022/11/25 12:43:08;;;;;;;21.85;3.92;;;;;;;;;;4960338;28;20027;-69
2022/11/25 12:45:34;;;;;;;31.88;4.47;;;;;;;;;;4953424;28;20058;-71
2022/11/25 12:48:00;;;;;;;20.88;3.65;;;;;;;;;;4964851;28;20030;-71
2022/11/25 12:50:41;;;;;;;21.25;3.35;;;;;;;;;;4968545;28;20041;-69
2022/11/25 12:53:22;;;;;;;20.35;3.53;;;;;;;;;;4953714;28;20035;-70
2022/11/25 12:55:48;;;;;;;19.95;3.63;;;;;;;;;;4968566;28;20117;-70
2022/11/25 12:58:23;;;;;;;19.05;4.72;;;;;;;;;;4967078;28;20590;-71
2022/11/25 13:01:05;;;;;;;17.05;3.10;;;;;;;;;;4961734;28;20023;-71
2022/11/25 13:03:50;;;;;;;18.13;3.70;;;;;;;;;;4957798;28;20039;-72
2022/11/25 13:06:29;;;;;;;23.85;4.20;;;;;;;;;;4964861;28;20022;-70
2022/11/25 13:09:01;;;;;;;30.05;4.60;;;;;;;;;;4971429;28;20064;-73
2022/11/25 13:11:51;;;;;;;17.73;3.60;;;;;;;;;;4972872;28;20488;-72
2022/11/25 13:14:37;;;;;;;28.58;4.13;;;;;;;;;;4961182;28;20463;-72
2022/11/25 13:17:03;;;;;;;19.85;3.90;;;;;;;;;;4968650;28;20073;-72
2022/11/25 13:19:32;;;;;;;17.95;3.70;;;;;;;;;;4954765;28;20027;-72
2022/11/25 13:21:59;;;;;;;18.48;4.03;;;;;;;;;;4967326;28;20046;-72
2022/11/25 13:24:39;;;;;;;26.88;4.30;;;;;;;;;;4955342;28;20122;-72
2022/11/25 13:27:06;;;;;;;20.10;3.50;;;;;;;;;;4963732;28;20038;-73
2022/11/25 13:29:41;;;;;;;23.88;4.60;;;;;;;;;;4963978;28;20714;-72
2022/11/25 13:32:25;;;;;;;23.27;5.03;;;;;;;;;;4968356;28;20041;-72
2022/11/25 13:35:11;;;;;;;24.63;3.63;;;;;;;;;;4965162;28;20026;-72
2022/11/25 13:37:41;;;;;;;25.42;4.07;;;;;;;;;;4971535;28;20019;-72
2022/11/25 13:40:22;;;;;;;29.90;4.38;;;;;;;;;;4938030;28;20058;-72
2022/11/25 13:42:49;;;;;;;18.08;3.65;;;;;;;;;;4950946;28;20027;-70
2022/11/25 13:45:35;;;;;;;20.50;3.58;;;;;;;;;;4961450;28;20038;-71
2022/11/25 13:48:13;;;;;;;26.35;4.00;;;;;;;;;;4948418;28;20078;-73
2022/11/25 13:50:39;;;;;;;22.67;3.30;;;;;;;;;;4971302;28;20574;-70
2022/11/25 13:53:07;;;;;;;24.30;3.72;;;;;;;;;;4968175;28;20118;-71
2022/11/25 13:55:39;;;;;;;28.60;4.03;;;;;;;;;;4954237;28;20023;-72
2022/11/25 13:58:11;;;;;;;19.92;3.92;;;;;;;;;;4967561;28;20431;-77
2022/11/25 14:00:49;;;;;;;22.17;3.40;;;;;;;;;;4969891;28;20526;-72
2022/11/25 14:03:18;;;;;;;22.70;4.03;;;;;;;;;;4940368;28;20205;-69
2022/11/25 14:05:47;;;;;;;23.80;4.00;;;;;;;;;;4967954;28;20038;-72
2022/11/25 14:08:33;;;;;;;19.42;3.60;;;;;;;;;;4965210;28;20027;-71
2022/11/25 14:11:02;;;;;;;27.63;4.38;;;;;;;;;;4947909;28;20129;-71
2022/11/25 14:13:47;;;;;;;23.45;3.60;;;;;;;;;;4966195;28;20027;-71
2022/11/25 14:16:22;;;;;;;27.05;4.47;;;;;;;;;;4968927;28;20596;-71
2022/11/25 14:19:04;;;;;;;31.73;7.22;;;;;;;;;;4970106;28;20493;-72
2022/11/25 14:21:39;;;;;;;29.00;5.03;;;;;;;;;;4973486;28;20460;-72
2022/11/25 14:24:05;;;;;;;29.83;6.25;;;;;;;;;;4972085;28;20201;-72
2022/11/25 14:26:34;;;;;;;35.67;13.07;;;;;;;;;;4971875;28;20022;-73
2022/11/25 14:29:11;;;;;;;44.42;6.88;;;;;;;;;;4971608;28;20046;-72
2022/11/25 14:31:44;;;;;;;27.52;5.18;;;;;;;;;;4969317;28;20093;-72
2022/11/25 14:34:31;;;;;;;33.22;4.72;;;;;;;;;;4965760;28;20464;-71
2022/11/25 14:37:24;;;;;;;30.70;4.75;;;;;;;;;;4971357;28;20043;-70
2022/11/25 14:39:54;;;;;;;27.77;4.97;;;;;;;;;;4944885;28;20088;-70
2022/11/25 14:42:21;;;;;;;39.85;6.75;;;;;;;;;;4967377;28;20031;-73
2022/11/25 14:45:07;;;;;;;32.60;4.68;;;;;;;;;;4969853;28;20027;-71
2022/11/25 14:47:33;;;;;;;27.52;5.93;;;;;;;;;;4969750;28;20034;-71
2022/11/25 14:49:59;;;;;;;45.88;5.78;;;;;;;;;;4967383;28;20035;-71
2022/11/25 14:52:26;;;;;;;40.30;5.80;;;;;;;;;;4972929;28;20053;-71